Time;durP1;ratioP1;P1;durP2;ratioP2;P2;SDS_P1;SDS_P2;PMS_P1;PMS_P2;Temp;Humidity;BMP_temperature;BMP_pressure;BME280_temperature;BME280_humidity;BME280_pressure;Samples;Min_cycle;Max_cycle;Signal;HPM_P1;HPM_P2
2020/12/18 00:00:04;;;;;;;102.25;28.05;;;;;;;2.15;100.00;102364.00;5012382;28;20490;-79
2020/12/18 00:02:30;;;;;;;343.52;115.75;;;;;;;2.07;100.00;102361.09;5012843;28;20088;-79
2020/12/18 00:04:55;;;;;;;118.95;37.03;;;;;;;2.02;100.00;102365.81;5015502;28;20033;-79
2020/12/18 00:07:22;;;;;;;181.30;59.60;;;;;;;2.11;100.00;102359.91;4999524;28;20030;-80
2020/12/18 00:09:47;;;;;;;98.57;28.50;;;;;;;2.10;100.00;102358.25;5003590;28;20025;-79
2020/12/18 00:12:13;;;;;;;103.32;28.58;;;;;;;2.10;100.00;102357.41;5015717;28;20026;-80
2020/12/18 00:14:38;;;;;;;106.95;26.33;;;;;;;2.04;100.00;102358.69;5016788;28;20030;-79
2020/12/18 00:17:05;;;;;;;101.57;30.65;;;;;;;2.05;100.00;102355.94;5015784;28;20049;-79
2020/12/18 00:19:31;;;;;;;91.97;26.08;;;;;;;2.07;100.00;102363.69;5015602;28;20180;-80
2020/12/18 00:21:57;;;;;;;106.07;32.10;;;;;;;2.10;100.00;102365.28;5015858;28;20124;-80
2020/12/18 00:24:22;;;;;;;113.53;32.60;;;;;;;2.13;100.00;102367.66;5015634;28;20466;-80
2020/12/18 00:26:48;;;;;;;114.55;32.75;;;;;;;2.17;100.00;102361.25;5015729;28;20168;-80
2020/12/18 00:29:13;;;;;;;120.07;32.75;;;;;;;2.14;100.00;102362.31;5016395;28;20029;-80
2020/12/18 00:31:39;;;;;;;103.28;27.90;;;;;;;2.15;100.00;102363.13;5015408;28;20180;-80
2020/12/18 00:34:04;;;;;;;105.40;27.73;;;;;;;2.16;100.00;102368.28;5016579;28;20151;-80
2020/12/18 00:36:30;;;;;;;108.35;29.30;;;;;;;2.18;100.00;102371.66;5016371;28;20040;-79
2020/12/18 00:38:55;;;;;;;326.40;108.50;;;;;;;2.14;100.00;102367.53;5015462;28;20122;-80
2020/12/18 00:41:21;;;;;;;141.73;45.95;;;;;;;2.14;100.00;102369.34;5016335;28;20498;-80
2020/12/18 00:43:46;;;;;;;327.10;113.85;;;;;;;2.15;100.00;102355.28;5015324;28;20030;-79
2020/12/18 00:46:12;;;;;;;312.25;102.25;;;;;;;2.09;100.00;102359.19;5013621;28;20036;-80
2020/12/18 00:48:37;;;;;;;181.45;54.63;;;;;;;2.15;100.00;102356.13;5015107;28;20053;-81
2020/12/18 00:51:02;;;;;;;114.88;35.30;;;;;;;2.10;100.00;102362.66;5015142;28;20021;-80
2020/12/18 00:53:29;;;;;;;238.50;71.55;;;;;;;2.04;100.00;102354.28;5015253;28;20022;-80
2020/12/18 00:55:54;;;;;;;111.22;34.35;;;;;;;2.12;100.00;102356.34;5031589;28;20025;-79
2020/12/18 00:58:20;;;;;;;89.78;26.27;;;;;;;2.19;100.00;102354.13;5031634;28;20041;-80
2020/12/18 01:00:45;;;;;;;95.65;25.92;;;;;;;2.12;100.00;102352.88;5035699;23;20146;-88
2020/12/18 01:03:11;;;;;;;92.50;26.40;;;;;;;2.10;100.00;102360.88;4989702;28;20039;-88
2020/12/18 01:05:36;;;;;;;84.63;25.40;;;;;;;2.15;100.00;102356.13;4975788;28;20031;-87
2020/12/18 01:08:02;;;;;;;88.22;28.48;;;;;;;2.17;100.00;102354.22;4975682;28;20245;-87
2020/12/18 01:10:28;;;;;;;105.60;27.52;;;;;;;2.23;100.00;102348.53;4974307;28;20019;-87
2020/12/18 01:12:53;;;;;;;92.05;29.05;;;;;;;2.22;100.00;102354.72;4975423;28;20508;-87
2020/12/18 01:15:19;;;;;;;85.82;24.88;;;;;;;2.19;100.00;102352.34;4973480;28;20015;-87
2020/12/18 01:17:44;;;;;;;85.63;24.38;;;;;;;2.23;100.00;102358.19;4974267;28;20034;-87
2020/12/18 01:20:09;;;;;;;78.85;24.10;;;;;;;2.11;100.00;102352.03;4974282;28;20109;-87
2020/12/18 01:22:35;;;;;;;97.70;25.42;;;;;;;2.11;100.00;102343.34;4974446;28;20467;-88
2020/12/18 01:25:00;;;;;;;109.60;33.05;;;;;;;2.11;100.00;102344.19;4974270;28;20077;-87
2020/12/18 01:27:26;;;;;;;132.85;41.13;;;;;;;2.05;100.00;102345.44;4973743;28;20023;-87
2020/12/18 01:29:51;;;;;;;108.78;32.92;;;;;;;2.05;100.00;102342.81;4990004;28;20492;-87
2020/12/18 01:32:17;;;;;;;114.68;33.50;;;;;;;2.20;100.00;102346.13;4974056;28;20062;-86
2020/12/18 01:34:44;;;;;;;117.45;36.47;;;;;;;2.21;100.00;102339.09;4973901;28;20030;-87
2020/12/18 01:37:10;;;;;;;103.25;33.38;;;;;;;2.25;100.00;102341.41;4973911;28;20485;-87
2020/12/18 01:39:36;;;;;;;96.20;28.40;;;;;;;2.26;100.00;102344.84;4975296;28;20109;-88
2020/12/18 01:42:01;;;;;;;103.85;34.67;;;;;;;2.24;100.00;102341.50;4973821;28;20117;-87
2020/12/18 01:44:27;;;;;;;102.63;31.27;;;;;;;2.19;100.00;102339.22;4974797;28;20027;-88
2020/12/18 01:46:52;;;;;;;102.93;33.17;;;;;;;2.20;100.00;102340.88;4973801;28;20038;-87
2020/12/18 01:49:18;;;;;;;96.97;30.95;;;;;;;2.19;100.00;102341.00;4973686;28;20074;-88
2020/12/18 01:51:44;;;;;;;105.70;29.30;;;;;;;2.25;100.00;102343.19;4973700;28;20114;-87
2020/12/18 01:54:09;;;;;;;89.38;26.60;;;;;;;2.28;100.00;102343.78;4973564;28;20026;-87
2020/12/18 01:56:36;;;;;;;87.22;23.25;;;;;;;2.27;100.00;102346.53;4973632;28;20030;-87
2020/12/18 01:59:01;;;;;;;64.95;21.98;;;;;;;2.26;100.00;102345.69;4973194;28;20026;-87
2020/12/18 02:01:26;;;;;;;55.70;19.30;;;;;;;2.29;100.00;102344.63;4989514;28;20042;-87
2020/12/18 02:03:53;;;;;;;65.05;18.40;;;;;;;2.24;100.00;102339.72;4989492;28;20133;-87
2020/12/18 02:06:21;;;;;;;53.65;18.85;;;;;;;2.26;100.00;102344.84;4973407;28;20023;-87
2020/12/18 02:08:49;;;;;;;55.08;16.85;;;;;;;2.23;100.00;102340.66;4973209;28;20031;-87
2020/12/18 02:11:21;;;;;;;47.90;16.98;;;;;;;2.20;100.00;102342.69;4973317;28;20030;-88
2020/12/18 02:13:50;;;;;;;;;;;;;;;2.22;100.00;102346.03;4973575;28;20034;-87
2020/12/18 02:16:16;;;;;;;51.45;16.33;;;;;;;2.21;100.00;102341.72;4972988;28;19917;-88
2020/12/18 02:18:41;;;;;;;44.72;15.43;;;;;;;2.28;100.00;102337.72;4973204;28;20053;-87
2020/12/18 02:21:07;;;;;;;45.83;15.68;;;;;;;2.26;100.00;102339.59;4974467;28;20105;-87
2020/12/18 02:23:32;;;;;;;46.72;16.35;;;;;;;2.37;100.00;102339.66;4974099;28;20499;-87
2020/12/18 02:26:07;;;;;;;41.35;15.02;;;;;;;2.28;100.00;102343.78;4972428;28;20031;-87
2020/12/18 02:28:36;;;;;;;43.88;15.95;;;;;;;2.31;100.00;102347.16;4988950;28;20034;-86
2020/12/18 02:31:01;;;;;;;53.33;17.40;;;;;;;2.31;100.00;102347.16;4972857;28;20029;-87
2020/12/18 02:33:26;;;;;;;48.83;15.85;;;;;;;2.30;100.00;102341.06;4974220;28;20039;-88
2020/12/18 02:35:52;;;;;;;42.03;14.73;;;;;;;2.24;100.00;102347.59;4972939;28;20031;-87
2020/12/18 02:38:17;;;;;;;43.15;14.73;;;;;;;2.29;100.00;102342.00;4972640;28;20097;-88
2020/12/18 02:40:43;;;;;;;44.92;15.85;;;;;;;2.34;100.00;102354.78;4974174;28;20447;-88
2020/12/18 02:43:08;;;;;;;44.88;14.63;;;;;;;2.23;100.00;102345.91;4972855;28;20069;-86
2020/12/18 02:45:33;;;;;;;44.75;16.48;;;;;;;2.26;100.00;102345.69;4972426;28;20030;-87
2020/12/18 02:47:59;;;;;;;50.78;14.48;;;;;;;2.28;100.00;102345.59;4973988;28;20022;-87
2020/12/18 02:50:25;;;;;;;46.13;15.63;;;;;;;2.27;100.00;102350.00;4972603;28;20407;-87
2020/12/18 02:52:50;;;;;;;49.75;19.08;;;;;;;2.30;100.00;102348.94;4972703;28;20027;-87
2020/12/18 02:55:16;;;;;;;49.67;16.40;;;;;;;2.26;100.00;102350.09;4972263;28;20448;-87
2020/12/18 02:57:41;;;;;;;48.63;16.33;;;;;;;2.28;100.00;102350.81;4973699;28;20485;-87
2020/12/18 03:00:06;;;;;;;52.63;17.40;;;;;;;2.30;100.00;102354.19;4972680;28;20113;-87
2020/12/18 03:02:32;;;;;;;49.08;17.63;;;;;;;2.33;100.00;102350.47;4973687;28;20424;-87
2020/12/18 03:04:57;;;;;;;57.28;18.02;;;;;;;2.31;100.00;102360.25;4973716;28;20485;-87
2020/12/18 03:07:23;;;;;;;53.25;17.95;;;;;;;2.32;100.00;102361.94;4972393;28;20027;-87
2020/12/18 03:09:48;;;;;;;50.53;16.73;;;;;;;2.28;100.00;102356.91;4972210;28;20046;-87
2020/12/18 03:12:13;;;;;;;54.08;17.52;;;;;;;2.34;100.00;102363.50;4972540;28;20432;-88
2020/12/18 03:14:39;;;;;;;46.28;16.92;;;;;;;2.32;100.00;102360.13;4973373;28;20027;-87
2020/12/18 03:17:04;;;;;;;49.17;16.33;;;;;;;2.32;100.00;102359.31;4972297;28;20076;-87
2020/12/18 03:19:30;;;;;;;49.83;18.05;;;;;;;2.33;100.00;102363.59;4972304;28;20034;-87
2020/12/18 03:21:55;;;;;;;53.95;19.23;;;;;;;2.31;100.00;102362.88;4972376;28;20066;-87
2020/12/18 03:24:21;;;;;;;47.90;18.20;;;;;;;2.46;100.00;102367.84;4972106;28;20031;-86
2020/12/18 03:26:46;;;;;;;41.17;15.98;;;;;;;2.36;100.00;102366.84;4972321;28;20034;-87
2020/12/18 03:29:12;;;;;;;47.75;16.40;;;;;;;2.38;100.00;102364.09;4972214;28;20038;-89
2020/12/18 03:31:38;;;;;;;48.80;17.73;;;;;;;2.41;100.00;102369.13;4972159;28;20489;-88
2020/12/18 03:34:03;;;;;;;42.55;15.55;;;;;;;2.37;100.00;102367.69;4971940;28;20023;-86
2020/12/18 03:36:29;;;;;;;45.55;17.75;;;;;;;2.34;100.00;102363.50;4972281;28;20037;-88
2020/12/18 03:38:54;;;;;;;43.38;15.07;;;;;;;2.25;100.00;102362.38;4974894;28;20050;-88
2020/12/18 03:41:20;;;;;;;49.15;19.23;;;;;;;2.25;100.00;102359.75;4975807;28;20039;-86
2020/12/18 03:43:45;;;;;;;49.70;19.23;;;;;;;2.28;100.00;102362.16;4976047;28;20026;-88
2020/12/18 03:46:15;;;;;;;49.58;18.38;;;;;;;2.26;100.00;102361.41;4975917;28;20448;-86
2020/12/18 03:48:41;;;;;;;51.05;18.00;;;;;;;2.28;100.00;102362.16;4975894;28;20073;-86
2020/12/18 03:51:06;;;;;;;52.63;18.55;;;;;;;2.28;100.00;102359.53;4975544;28;20057;-85
2020/12/18 03:53:31;;;;;;;59.08;19.52;;;;;;;2.24;100.00;102362.47;4975821;28;20244;-86
2020/12/18 03:55:57;;;;;;;51.92;18.42;;;;;;;2.27;100.00;102364.91;4975737;28;20033;-86
2020/12/18 03:58:22;;;;;;;54.45;19.52;;;;;;;2.32;100.00;102362.75;4975697;28;20500;-86
2020/12/18 04:00:48;;;;;;;51.78;16.33;;;;;;;2.24;100.00;102355.47;4649524;23;10001894;-80
2020/12/18 04:03:13;;;;;;;45.75;18.23;;;;;;;2.28;100.00;102359.53;5015914;28;20076;-80
2020/12/18 04:05:38;;;;;;;50.20;18.27;;;;;;;2.26;100.00;102363.22;5015063;28;20030;-80
2020/12/18 04:08:06;;;;;;;52.72;17.35;;;;;;;2.26;100.00;102360.59;5016449;28;20036;-81
2020/12/18 04:10:33;;;;;;;48.67;17.50;;;;;;;2.25;100.00;102358.91;5015822;28;20036;-81
2020/12/18 04:12:58;;;;;;;47.40;17.48;;;;;;;2.26;100.00;102365.81;5016839;28;20107;-81
2020/12/18 04:15:23;;;;;;;44.45;17.25;;;;;;;2.23;100.00;102356.38;5016929;28;20426;-80
2020/12/18 04:17:49;;;;;;;48.80;17.15;;;;;;;2.19;100.00;102362.00;5032035;28;20034;-80
2020/12/18 04:20:14;;;;;;;50.35;19.27;;;;;;;2.18;100.00;102360.28;5032283;28;20076;-80
2020/12/18 04:22:40;;;;;;;47.90;16.73;;;;;;;2.24;100.00;102354.59;5032331;28;20036;-81
2020/12/18 04:25:05;;;;;;;50.17;18.38;;;;;;;2.27;100.00;102362.28;5016280;28;20026;-81
2020/12/18 04:27:31;;;;;;;53.60;18.13;;;;;;;2.18;100.00;102361.16;5032005;28;20033;-81
2020/12/18 04:29:56;;;;;;;42.67;17.58;;;;;;;2.17;100.00;102356.84;5016420;28;20458;-81
2020/12/18 04:32:22;;;;;;;55.15;20.65;;;;;;;2.17;100.00;102354.22;5016542;28;20176;-80
2020/12/18 04:34:47;;;;;;;48.13;17.88;;;;;;;2.22;100.00;102362.59;5015522;28;20034;-79
2020/12/18 04:37:14;;;;;;;46.92;18.45;;;;;;;2.21;100.00;102354.81;5016008;28;20033;-80
2020/12/18 04:39:39;;;;;;;46.83;17.40;;;;;;;2.20;100.00;102361.03;5015430;28;20476;-80
2020/12/18 04:42:04;;;;;;;50.17;19.30;;;;;;;2.21;100.00;102368.78;5015217;28;20062;-80
2020/12/18 04:44:30;;;;;;;44.28;14.80;;;;;;;2.18;100.00;102363.78;5016311;28;20079;-80
2020/12/18 04:46:57;;;;;;;50.47;20.33;;;;;;;2.17;100.00;102367.31;5015322;28;20037;-80
2020/12/18 04:49:24;;;;;;;47.67;17.73;;;;;;;2.18;100.00;102369.03;5014914;28;20030;-79
2020/12/18 04:51:53;;;;;;;45.78;17.17;;;;;;;2.22;100.00;102364.38;5015868;28;20458;-80
2020/12/18 04:54:21;;;;;;;36.35;14.40;;;;;;;2.14;100.00;102362.31;5016011;28;20026;-80
2020/12/18 04:56:50;;;;;;;41.58;16.95;;;;;;;2.15;100.00;102363.13;5015239;28;20042;-80
2020/12/18 04:59:21;;;;;;;45.72;17.48;;;;;;;2.21;100.00;102366.19;5015055;28;20444;-79
2020/12/18 05:01:47;;;;;;;45.33;18.60;;;;;;;2.13;100.00;102375.53;5031164;28;20073;-80
2020/12/18 05:04:14;;;;;;;47.40;17.20;;;;;;;2.19;100.00;102369.84;5014894;28;20389;-81
2020/12/18 05:06:40;;;;;;;45.88;16.73;;;;;;;2.14;100.00;102375.41;5015648;28;20478;-81
2020/12/18 05:09:05;;;;;;;48.35;16.73;;;;;;;2.12;100.00;102376.47;5015732;28;20161;-80
2020/12/18 05:11:30;;;;;;;46.00;16.70;;;;;;;2.12;100.00;102369.47;5014920;28;20171;-80
2020/12/18 05:13:56;;;;;;;42.28;15.35;;;;;;;2.17;100.00;102375.19;5014837;28;20044;-80
2020/12/18 05:16:23;;;;;;;43.30;15.48;;;;;;;2.15;100.00;102378.88;5015704;28;20450;-81
2020/12/18 05:18:49;;;;;;;35.63;14.27;;;;;;;2.19;100.00;102389.03;5014503;28;20029;-80
2020/12/18 05:21:16;;;;;;;40.90;15.05;;;;;;;2.17;100.00;102380.44;5014770;28;20026;-81
2020/12/18 05:23:46;;;;;;;41.28;15.57;;;;;;;2.21;100.00;102384.53;5030730;28;20073;-80
2020/12/18 05:26:14;;;;;;;35.50;13.43;;;;;;;2.21;100.00;102384.53;5015587;28;20377;-81
2020/12/18 05:28:45;;;;;;;42.35;18.17;;;;;;;2.25;100.00;102387.75;5031072;28;20041;-81
2020/12/18 05:31:14;;;;;;;40.33;15.48;;;;;;;2.24;100.00;102391.31;5014513;28;20030;-80
2020/12/18 05:33:41;;;;;;;37.92;14.93;;;;;;;2.16;100.00;102391.03;5015317;28;20030;-81
2020/12/18 05:36:07;;;;;;;39.13;16.48;;;;;;;2.19;100.00;102391.66;5015313;28;20037;-81
2020/12/18 05:38:36;;;;;;;40.53;15.65;;;;;;;2.17;100.00;102390.91;5030702;28;20034;-80
2020/12/18 05:41:04;;;;;;;42.45;16.38;;;;;;;2.20;100.00;102395.94;5030199;28;20037;-81
2020/12/18 05:43:41;;;;;;;41.13;15.23;;;;;;;2.20;100.00;102389.88;5015511;28;20116;-80
2020/12/18 05:46:21;;;;;;;35.45;13.80;;;;;;;2.20;100.00;102395.09;5030855;28;20458;-80
2020/12/18 05:49:01;;;;;;;43.30;16.38;;;;;;;2.13;100.00;102396.50;5030564;28;20455;-81
2020/12/18 05:51:35;;;;;;;38.45;14.88;;;;;;;2.20;100.00;102401.19;5015053;28;20533;-80
2020/12/18 05:54:11;;;;;;;43.28;16.38;;;;;;;2.21;100.00;102402.00;5014942;28;20089;-80
2020/12/18 05:56:38;;;;;;;39.15;15.52;;;;;;;2.14;100.00;102406.03;5030848;28;20113;-81
2020/12/18 05:59:14;;;;;;;37.95;14.70;;;;;;;2.24;100.00;102401.78;5030343;28;20080;-80
2020/12/18 06:01:45;;;;;;;38.00;14.27;;;;;;;2.23;100.00;102406.22;5014561;28;20367;-80
2020/12/18 06:04:19;;;;;;;37.38;13.82;;;;;;;2.23;100.00;102414.06;5013689;28;20061;-80
2020/12/18 06:06:47;;;;;;;35.85;13.90;;;;;;;2.22;100.00;102411.56;5002783;28;20037;-80
2020/12/18 06:09:13;;;;;;;35.67;14.70;;;;;;;2.25;100.00;102424.47;5030205;28;20021;-80
2020/12/18 06:11:39;;;;;;;35.00;14.07;;;;;;;2.17;100.00;102409.28;5014784;28;20492;-81
2020/12/18 06:14:08;;;;;;;33.33;13.93;;;;;;;2.22;100.00;102417.66;5014176;28;20030;-80
2020/12/18 06:16:37;;;;;;;37.53;13.88;;;;;;;2.18;100.00;102420.59;5013725;28;20033;-80
2020/12/18 06:19:05;;;;;;;43.13;20.60;;;;;;;2.20;100.00;102416.91;5013681;28;20022;-80
2020/12/18 06:21:31;;;;;;;41.30;16.70;;;;;;;2.17;100.00;102406.66;5014521;28;20092;-80
2020/12/18 06:23:56;;;;;;;39.47;15.52;;;;;;;2.21;100.00;102412.50;5029820;28;20026;-80
2020/12/18 06:26:23;;;;;;;38.33;14.85;;;;;;;2.21;100.00;102418.63;5013511;28;20032;-81
2020/12/18 06:28:48;;;;;;;40.53;16.00;;;;;;;2.15;100.00;102420.81;5029695;28;20033;-80
2020/12/18 06:31:33;;;;;;;33.60;14.48;;;;;;;2.22;100.00;102430.75;5014391;28;20022;-80
2020/12/18 06:34:03;;;;;;;35.67;15.50;;;;;;;2.16;100.00;102428.56;5013474;28;20116;-80
2020/12/18 06:36:43;;;;;;;40.83;16.48;;;;;;;2.18;100.00;102412.72;5013781;28;20049;-81
2020/12/18 06:39:32;;;;;;;31.02;12.60;;;;;;;2.27;100.00;102423.41;5011578;28;20125;-81
2020/12/18 06:42:15;;;;;;;34.55;14.65;;;;;;;2.14;100.00;102433.09;5018091;28;20099;-81
2020/12/18 06:44:53;;;;;;;33.10;14.35;;;;;;;2.16;100.00;102431.19;5010301;28;20108;-81
2020/12/18 06:47:28;;;;;;;31.63;13.93;;;;;;;2.15;100.00;102433.91;5029246;28;20398;-81
2020/12/18 06:49:59;;;;;;;35.45;15.57;;;;;;;2.21;100.00;102442.22;5013517;28;20018;-81
2020/12/18 06:52:37;;;;;;;34.13;13.93;;;;;;;2.25;100.00;102438.41;5012759;28;20030;-80
2020/12/18 06:55:04;;;;;;;34.40;14.77;;;;;;;2.34;100.00;102444.78;5011815;28;20405;-80
2020/12/18 06:57:29;;;;;;;35.60;16.52;;;;;;;2.22;100.00;102440.41;5028817;28;20029;-80
2020/12/18 07:00:26;;;;;;;34.70;14.23;;;;;;;2.19;100.00;102446.72;5028878;28;20026;-80
2020/12/18 07:02:52;;;;;;;37.67;13.52;;;;;;;2.21;100.00;102443.97;5009277;28;20054;-80
2020/12/18 07:05:36;;;;;;;38.28;15.43;;;;;;;2.24;100.00;102446.38;4994414;28;20105;-80
2020/12/18 07:08:07;;;;;;;30.40;13.63;;;;;;;2.26;100.00;102441.88;4994270;28;20352;-80
2020/12/18 07:10:41;;;;;;;40.50;17.38;;;;;;;2.10;100.00;102447.38;4994251;28;20030;-80
2020/12/18 07:13:12;;;;;;;41.00;16.40;;;;;;;2.16;100.00;102456.59;5013351;28;20110;-80
2020/12/18 07:15:43;;;;;;;42.15;16.85;;;;;;;2.23;100.00;102448.16;5013624;28;20134;-81
2020/12/18 07:18:34;;;;;;;37.83;14.38;;;;;;;2.40;100.00;102448.75;5012437;28;20475;-80
2020/12/18 07:21:08;;;;;;;40.15;19.25;;;;;;;2.26;100.00;102453.19;5004684;28;20394;-81
2020/12/18 07:23:36;;;;;;;38.78;16.38;;;;;;;2.24;100.00;102449.84;5011297;28;20467;-80
2020/12/18 07:26:03;;;;;;;42.63;18.27;;;;;;;2.19;100.00;102453.75;5013683;28;20022;-80
2020/12/18 07:28:30;;;;;;;39.08;17.30;;;;;;;2.22;100.00;102459.59;5011193;28;20037;-80
2020/12/18 07:30:57;;;;;;;39.13;16.15;;;;;;;2.14;100.00;102464.53;4674169;28;10000276;-81
2020/12/18 07:33:24;;;;;;;41.95;18.30;;;;;;;2.23;100.00;102455.19;5005645;28;20038;-81
2020/12/18 07:35:55;;;;;;;37.88;17.20;;;;;;;2.23;100.00;102461.28;5009560;28;20096;-81
2020/12/18 07:38:24;;;;;;;36.67;15.45;;;;;;;2.20;100.00;102464.09;5004621;28;20018;-81
2020/12/18 07:40:52;;;;;;;46.13;20.73;;;;;;;2.39;100.00;102461.03;5000988;28;20429;-81
2020/12/18 07:43:20;;;;;;;43.05;17.42;;;;;;;2.84;100.00;102456.00;5005046;28;20355;-81
2020/12/18 07:45:51;;;;;;;40.10;17.00;;;;;;;2.34;100.00;102463.16;5021918;28;20056;-80
2020/12/18 07:48:20;;;;;;;43.13;17.58;;;;;;;2.31;100.00;102460.75;5003587;28;20032;-80
2020/12/18 07:51:10;;;;;;;39.67;15.52;;;;;;;2.32;100.00;102464.19;5021158;28;20030;-80
2020/12/18 07:53:38;;;;;;;37.67;14.77;;;;;;;3.04;100.00;102467.66;4994295;28;20045;-81
2020/12/18 07:56:13;;;;;;;41.08;18.45;;;;;;;2.31;100.00;102471.22;5005759;28;20038;-80
2020/12/18 07:58:53;;;;;;;40.97;16.58;;;;;;;2.41;100.00;102471.41;5008175;28;20030;-81
2020/12/18 08:01:24;;;;;;;38.63;15.05;;;;;;;2.46;100.00;102470.13;5004998;28;20049;-81
2020/12/18 08:03:52;;;;;;;39.92;16.40;;;;;;;2.34;100.00;102475.41;5007670;28;20029;-81
2020/12/18 08:06:19;;;;;;;39.30;18.23;;;;;;;2.26;100.00;102468.91;5009182;28;20049;-81
2020/12/18 08:09:02;;;;;;;38.30;15.98;;;;;;;2.36;100.00;102476.13;5026397;28;20064;-81
2020/12/18 08:11:34;;;;;;;44.00;17.52;;;;;;;2.19;100.00;102474.72;5010896;28;20040;-81
2020/12/18 08:14:01;;;;;;;41.08;18.30;;;;;;;2.18;100.00;102481.75;5022204;28;20482;-81
2020/12/18 08:16:31;;;;;;;37.78;16.10;;;;;;;2.28;100.00;102474.06;5005826;28;20025;-81
2020/12/18 08:19:01;;;;;;;41.85;15.30;;;;;;;2.40;100.00;102478.44;5020253;28;20034;-80
2020/12/18 08:21:28;;;;;;;40.78;16.02;;;;;;;2.29;100.00;102473.94;5003920;28;20046;-81
2020/12/18 08:23:59;;;;;;;43.85;18.00;;;;;;;2.33;100.00;102482.47;4997027;28;20049;-81
2020/12/18 08:26:27;;;;;;;41.58;15.38;;;;;;;2.18;100.00;102484.38;5008130;28;20049;-81
2020/12/18 08:28:53;;;;;;;42.85;18.63;;;;;;;2.63;100.00;102481.19;5003804;28;20026;-80
2020/12/18 08:31:19;;;;;;;37.45;15.98;;;;;;;2.53;100.00;102486.25;5006003;28;20405;-81
2020/12/18 08:33:52;;;;;;;43.17;20.83;;;;;;;2.22;100.00;102479.75;5005759;28;20449;-81
2020/12/18 08:36:18;;;;;;;45.10;20.10;;;;;;;2.24;100.00;102491.81;5022910;28;20454;-81
2020/12/18 08:39:05;;;;;;;99.70;43.22;;;;;;;2.32;100.00;102487.78;5018294;28;20045;-81
2020/12/18 08:41:54;;;;;;;33.13;13.68;;;;;;;2.21;100.00;102485.91;5008607;28;20057;-81
2020/12/18 08:44:27;;;;;;;30.65;14.32;;;;;;;2.22;100.00;102471.88;5010815;28;20049;-81
2020/12/18 08:46:52;;;;;;;34.40;16.30;;;;;;;2.14;100.00;102479.44;5010780;28;20026;-82
2020/12/18 08:49:27;;;;;;;38.05;15.25;;;;;;;2.31;100.00;102478.25;5012604;28;20051;-81
2020/12/18 08:51:54;;;;;;;51.13;23.85;;;;;;;2.21;100.00;102472.81;5027434;28;20103;-80
2020/12/18 08:54:22;;;;;;;41.55;19.90;;;;;;;2.20;100.00;102473.75;5027593;28;20037;-81
2020/12/18 08:56:47;;;;;;;30.63;14.95;;;;;;;2.16;100.00;102481.00;5028498;28;20060;-81
2020/12/18 08:59:16;;;;;;;32.72;14.27;;;;;;;2.17;100.00;102469.56;5028374;28;20469;-81
2020/12/18 09:01:49;;;;;;;38.80;18.33;;;;;;;2.33;100.00;102471.97;5012657;28;20115;-81
2020/12/18 09:04:15;;;;;;;27.25;13.15;;;;;;;2.18;100.00;102471.25;5013030;28;20030;-81
2020/12/18 09:06:52;;;;;;;26.75;12.75;;;;;;;2.24;100.00;102468.22;5012726;28;20113;-82
2020/12/18 09:09:18;;;;;;;25.67;11.85;;;;;;;2.20;100.00;102474.59;5012513;28;20471;-80
2020/12/18 09:11:48;;;;;;;40.85;22.95;;;;;;;2.27;100.00;102473.25;5015051;28;20034;-81
2020/12/18 09:14:30;;;;;;;27.63;13.10;;;;;;;2.26;100.00;102473.31;5013964;28;20406;-81
2020/12/18 09:16:57;;;;;;;29.38;13.40;;;;;;;2.33;100.00;102465.84;5000526;28;20107;-81
2020/12/18 09:19:23;;;;;;;27.60;13.65;;;;;;;2.51;100.00;102464.53;5014651;28;20478;-81
2020/12/18 09:21:48;;;;;;;28.25;11.48;;;;;;;2.44;100.00;102477.25;5031011;28;20087;-81
2020/12/18 09:24:19;;;;;;;20.60;10.38;;;;;;;2.39;100.00;102473.28;5031042;28;20450;-81
2020/12/18 09:26:47;;;;;;;21.73;9.45;;;;;;;2.31;100.00;102473.84;5015719;28;20058;-81
2020/12/18 09:29:17;;;;;;;22.40;10.77;;;;;;;2.29;100.00;102473.94;5011050;28;20053;-80
2020/12/18 09:31:45;;;;;;;20.25;9.18;;;;;;;2.24;100.00;102469.97;5014102;28;20057;-81
2020/12/18 09:34:16;;;;;;;16.92;9.93;;;;;;;2.35;100.00;102466.59;5030456;28;20030;-81
2020/12/18 09:36:42;;;;;;;17.27;9.63;;;;;;;2.23;100.00;102465.69;5007787;28;20057;-81
2020/12/18 09:39:07;;;;;;;17.92;9.40;;;;;;;2.14;100.00;102469.78;5030794;28;20064;-80
2020/12/18 09:41:33;;;;;;;17.35;8.20;;;;;;;2.05;100.00;102470.44;5030609;28;20073;-81
2020/12/18 09:43:59;;;;;;;19.10;6.90;;;;;;;2.11;100.00;102475.25;5030480;28;20125;-81
2020/12/18 09:46:24;;;;;;;17.27;9.18;;;;;;;2.11;100.00;102463.94;5014769;28;20036;-80
2020/12/18 09:48:51;;;;;;;19.95;8.77;;;;;;;2.00;100.00;102473.41;5029647;28;20053;-82
2020/12/18 09:51:17;;;;;;;21.10;10.02;;;;;;;2.16;100.00;102465.28;5014683;28;20140;-81
2020/12/18 09:53:43;;;;;;;26.15;12.73;;;;;;;2.16;100.00;102457.41;5029960;28;20033;-81
2020/12/18 09:56:10;;;;;;;28.27;11.15;;;;;;;1.97;100.00;102464.91;5015146;28;20034;-81
2020/12/18 09:58:36;;;;;;;24.33;11.05;;;;;;;2.11;100.00;102458.69;5013549;28;20045;-81
2020/12/18 10:01:04;;;;;;;22.17;11.45;;;;;;;2.14;100.00;102461.91;5029972;28;20046;-81
2020/12/18 10:03:29;;;;;;;29.48;15.88;;;;;;;2.05;100.00;102459.94;5014398;28;20033;-81
2020/12/18 10:05:55;;;;;;;24.77;11.52;;;;;;;3.03;100.00;102457.28;5029957;28;20389;-79
2020/12/18 10:08:21;;;;;;;19.95;9.40;;;;;;;3.09;99.12;102452.41;5014367;28;20402;-83
2020/12/18 10:10:47;;;;;;;19.85;10.75;;;;;;;2.13;100.00;102455.00;5014789;28;20030;-82
2020/12/18 10:13:17;;;;;;;20.48;9.70;;;;;;;2.65;100.00;102453.06;5030285;28;20029;-82
2020/12/18 10:15:43;;;;;;;92.85;35.63;;;;;;;1.98;100.00;102458.72;5030451;28;20053;-82
2020/12/18 10:18:17;;;;;;;152.90;62.15;;;;;;;1.95;100.00;102462.38;5013760;28;20471;-83
2020/12/18 10:20:55;;;;;;;29.65;11.98;;;;;;;3.14;100.00;102459.94;5025291;28;20061;-82
2020/12/18 10:23:26;;;;;;;17.48;9.30;;;;;;;1.96;100.00;102453.56;5027984;28;20421;-82
2020/12/18 10:25:51;;;;;;;22.77;11.25;;;;;;;1.90;100.00;102456.59;5007935;28;20425;-82
2020/12/18 10:28:25;;;;;;;28.45;14.07;;;;;;;1.99;100.00;102452.50;5013226;28;20109;-82
2020/12/18 10:30:50;;;;;;;28.42;13.05;;;;;;;2.03;100.00;102443.50;5011903;28;20030;-82
2020/12/18 10:33:22;;;;;;;28.08;12.75;;;;;;;2.17;100.00;102445.97;5013031;28;20037;-82
2020/12/18 10:35:57;;;;;;;20.73;11.50;;;;;;;2.13;100.00;102446.31;5012835;28;20374;-83
2020/12/18 10:38:24;;;;;;;21.42;10.27;;;;;;;2.19;100.00;102438.84;5029531;28;20462;-82
2020/12/18 10:40:52;;;;;;;34.28;15.10;;;;;;;2.09;100.00;102450.94;5029914;28;20093;-82
2020/12/18 10:43:17;;;;;;;29.52;14.73;;;;;;;2.13;100.00;102439.28;5029390;28;20445;-83
2020/12/18 10:45:44;;;;;;;31.88;16.02;;;;;;;2.18;100.00;102439.81;5013574;28;20037;-82
2020/12/18 10:48:09;;;;;;;26.60;13.73;;;;;;;1.99;100.00;102436.78;5013167;28;20033;-82
2020/12/18 10:50:45;;;;;;;23.35;11.18;;;;;;;1.96;100.00;102435.22;5013865;28;20033;-82
2020/12/18 10:53:10;;;;;;;36.97;14.13;;;;;;;2.02;100.00;102434.78;5012973;28;20597;-82
2020/12/18 10:55:36;;;;;;;36.47;16.63;;;;;;;2.06;100.00;102435.44;5009177;28;20124;-82
2020/12/18 10:58:01;;;;;;;33.70;15.20;;;;;;;2.09;100.00;102429.97;5013214;28;20109;-82
2020/12/18 11:00:30;;;;;;;20.58;10.90;;;;;;;1.93;100.00;102422.34;5029113;28;20113;-82
2020/12/18 11:02:57;;;;;;;23.00;11.00;;;;;;;1.92;100.00;102425.91;5013896;28;20044;-82
2020/12/18 11:05:22;;;;;;;28.20;12.25;;;;;;;2.08;100.00;102427.44;5013663;28;20093;-82
2020/12/18 11:07:51;;;;;;;21.58;11.10;;;;;;;2.09;100.00;102427.34;5013514;28;20030;-82
2020/12/18 11:10:16;;;;;;;20.23;10.38;;;;;;;2.10;100.00;102418.53;5013477;28;20366;-82
2020/12/18 11:12:49;;;;;;;21.90;11.93;;;;;;;1.98;100.00;102417.59;5012514;28;20041;-82